Time;durP1;ratioP1;P1;durP2;ratioP2;P2;SDS_P1;SDS_P2;PMS_P1;PMS_P2;Temp;Humidity;BMP_temperature;BMP_pressure;BME280_temperature;BME280_humidity;BME280_pressure;Samples;Min_cycle;Max_cycle;Signal;HPM_P1;HPM_P2
2024/04/10 00:02:20;;;;;;;2.38;0.30;;;;;;;5.85;58.04;101480.19;5242813;26;20061;-69
2024/04/10 00:04:46;;;;;;;4.22;0.75;;;;;;;6.03;57.58;101495.53;5247928;26;20472;-70
2024/04/10 00:07:13;;;;;;;3.30;0.47;;;;;;;6.17;57.35;101499.72;5229883;26;20631;-70
2024/04/10 00:09:38;;;;;;;3.83;0.30;;;;;;;6.11;57.79;101502.41;5264529;26;20006;-69
2024/04/10 00:12:04;;;;;;;8.73;0.50;;;;;;;5.12;60.27;101518.81;5237136;26;20047;-69
2024/04/10 00:14:30;;;;;;;7.20;0.60;;;;;;;5.45;59.26;101511.69;5231309;26;20800;-69
2024/04/10 00:16:55;;;;;;;9.32;0.50;;;;;;;5.85;58.13;101532.91;5237734;26;20090;-69
2024/04/10 00:19:21;;;;;;;4.50;0.45;;;;;;;5.21;58.93;101533.47;5224887;26;21742;-69
2024/04/10 00:21:48;;;;;;;2.95;0.38;;;;;;;5.40;58.14;101541.97;5237716;26;20014;-70
2024/04/10 00:24:16;;;;;;;5.22;0.30;;;;;;;5.81;56.84;101543.34;5228055;26;20014;-70
2024/04/10 00:26:42;;;;;;;4.43;0.10;;;;;;;5.43;56.67;101555.75;5239348;26;20029;-69
2024/04/10 00:29:07;;;;;;;6.13;0.63;;;;;;;5.08;56.43;101548.25;5229799;26;20006;-69
2024/04/10 00:31:32;;;;;;;4.22;0.40;;;;;;;5.60;55.27;101555.63;5235351;26;20396;-69
2024/04/10 00:33:58;;;;;;;4.65;0.20;;;;;;;5.55;55.12;101559.16;5254924;26;21211;-69
2024/04/10 00:36:26;;;;;;;5.85;0.35;;;;;;;5.55;54.77;101569.53;5224834;26;20508;-69
2024/04/10 00:38:51;;;;;;;3.33;0.20;;;;;;;5.98;53.66;101574.34;5218281;26;20084;-69
2024/04/10 00:41:17;;;;;;;3.72;0.40;;;;;;;5.62;54.26;101589.34;5254613;26;20018;-70
2024/04/10 00:43:44;;;;;;;8.15;0.50;;;;;;;5.30;54.91;101576.59;5237988;26;20022;-68
2024/04/10 00:46:20;;;;;;;3.33;0.10;;;;;;;5.45;54.75;101584.28;5227913;26;20024;-70
2024/04/10 00:48:47;;;;;;;4.03;0.10;;;;;;;5.24;55.19;101580.13;5237801;26;20022;-69
2024/04/10 00:51:33;;;;;;;3.67;0.10;;;;;;;5.27;55.17;101592.19;5237787;26;20020;-69
2024/04/10 00:54:00;;;;;;;8.35;0.43;;;;;;;5.72;54.46;101605.69;5205386;27;20394;-70
2024/04/10 00:56:26;;;;;;;4.03;0.40;;;;;;;5.20;55.61;101605.16;5188217;27;20076;-69
2024/04/10 00:58:52;;;;;;;6.22;0.28;;;;;;;5.24;55.50;101604.28;5223785;27;20010;-70
2024/04/10 01:01:19;;;;;;;3.28;0.35;;;;;;;5.56;55.23;101610.97;5263248;26;20006;-68
2024/04/10 01:03:45;;;;;;;1.23;0.10;;;;;;;5.82;54.64;101620.31;5266993;26;20066;-69
2024/04/10 01:06:10;;;;;;;4.63;0.10;;;;;;;5.57;55.57;101615.31;5260300;26;20014;-69
2024/04/10 01:08:37;;;;;;;3.03;0.20;;;;;;;6.02;54.31;101627.94;5238485;26;20017;-69
2024/04/10 01:11:05;;;;;;;5.50;0.20;;;;;;;5.34;56.15;101622.38;5266534;26;20515;-69
2024/04/10 01:13:32;;;;;;;5.57;0.65;;;;;;;5.67;55.70;101624.72;5237168;26;20033;-69
2024/04/10 01:15:57;;;;;;;2.20;0.20;;;;;;;5.84;55.36;101640.19;5238448;26;20053;-69
2024/04/10 01:18:23;;;;;;;5.18;0.50;;;;;;;5.56;56.22;101641.25;5228002;26;20025;-69
2024/04/10 01:20:49;;;;;;;2.13;0.10;;;;;;;5.67;56.26;101647.22;5245474;26;20021;-69
2024/04/10 01:23:18;;;;;;;3.03;0.20;;;;;;;5.75;56.41;101654.94;5227278;26;20156;-71
2024/04/10 01:25:44;;;;;;;2.35;0.20;;;;;;;5.48;57.53;101649.09;5231774;26;20038;-71
2024/04/10 01:28:09;;;;;;;5.07;0.30;;;;;;;5.54;57.93;101651.63;5254414;26;20069;-71
2024/04/10 01:30:35;;;;;;;4.15;0.32;;;;;;;5.83;57.20;101653.16;5234813;26;20566;-71
2024/04/10 01:33:00;;;;;;;4.75;0.40;;;;;;;5.87;57.59;101654.84;5240233;26;20018;-71
2024/04/10 01:35:26;;;;;;;4.78;0.20;;;;;;;5.62;58.14;101652.44;5231803;26;22511;-72
2024/04/10 01:37:52;;;;;;;4.95;1.88;;;;;;;5.59;59.08;101656.78;5259883;26;20138;-71
2024/04/10 01:40:17;;;;;;;2.85;0.30;;;;;;;5.25;59.58;101669.94;5232096;26;20113;-72
2024/04/10 01:42:46;;;;;;;5.03;0.35;;;;;;;5.32;59.79;101658.66;5228600;26;20010;-71
2024/04/10 01:45:11;;;;;;;7.90;0.47;;;;;;;5.75;58.45;101654.94;5228635;26;20002;-72
2024/04/10 01:47:38;;;;;;;3.58;0.60;;;;;;;5.31;59.23;101662.13;5249038;26;20006;-71
2024/04/10 01:50:05;;;;;;;5.22;0.20;;;;;;;5.33;58.73;101656.97;5218371;26;20376;-71
2024/04/10 01:52:31;;;;;;;9.80;0.40;;;;;;;5.75;57.83;101665.31;5195922;26;20011;-71
2024/04/10 01:54:56;;;;;;;3.65;0.13;;;;;;;4.89;58.75;101671.81;5232547;26;20004;-71
2024/04/10 01:57:22;;;;;;;8.25;0.30;;;;;;;5.34;57.76;101685.44;5231237;26;20010;-72
2024/04/10 01:59:48;;;;;;;2.30;0.45;;;;;;;5.55;57.25;101692.25;5232182;26;20456;-70
2024/04/10 02:02:13;;;;;;;9.00;0.55;;;;;;;5.82;57.04;101690.38;5229176;26;20016;-71
2024/04/10 02:04:39;;;;;;;6.60;0.73;;;;;;;5.66;57.32;101690.47;5229261;26;20022;-71
2024/04/10 02:07:05;;;;;;;8.25;0.25;;;;;;;5.60;57.90;101698.28;5237332;26;20617;-72
2024/04/10 02:09:30;;;;;;;2.88;0.13;;;;;;;5.51;57.89;101700.94;5252645;26;20473;-70
2024/04/10 02:11:57;;;;;;;1.95;0.15;;;;;;;5.54;57.74;101707.81;5285064;26;20005;-72
2024/04/10 02:14:22;;;;;;;6.28;0.20;;;;;;;5.79;57.34;101705.94;5260283;26;20029;-72
2024/04/10 02:16:48;;;;;;;2.00;0.55;;;;;;;5.41;58.59;101718.28;5263435;26;20028;-72
2024/04/10 02:19:14;;;;;;;5.07;0.30;;;;;;;5.83;57.50;101718.00;5263653;26;20008;-72
2024/04/10 02:21:39;;;;;;;5.93;0.30;;;;;;;5.45;59.07;101732.06;5272327;26;20009;-72
2024/04/10 02:24:06;;;;;;;3.97;0.30;;;;;;;5.25;59.89;101739.94;5242832;26;20016;-73
2024/04/10 02:26:32;;;;;;;3.35;0.47;;;;;;;5.36;60.42;101750.25;5220608;26;20084;-73
2024/04/10 02:28:58;;;;;;;5.28;0.60;;;;;;;5.40;60.22;101742.47;5268558;26;20028;-73
2024/04/10 02:31:24;;;;;;;6.57;0.47;;;;;;;5.60;59.86;101742.34;5227360;26;20512;-73
2024/04/10 02:33:50;;;;;;;6.35;0.63;;;;;;;5.58;60.08;101751.03;5233756;26;20499;-72
2024/04/10 02:36:15;;;;;;;4.57;0.40;;;;;;;5.59;60.17;101757.91;5237735;26;20006;-70
2024/04/10 02:38:41;;;;;;;2.88;0.15;;;;;;;5.90;59.34;101768.13;5230983;26;20025;-68
2024/04/10 02:41:07;;;;;;;3.33;0.40;;;;;;;5.81;59.66;101763.84;5240247;26;20028;-68
2024/04/10 02:43:32;;;;;;;4.72;0.38;;;;;;;5.68;60.29;101773.44;5222116;26;20006;-68
2024/04/10 02:46:00;;;;;;;4.70;0.30;;;;;;;5.58;60.12;101772.63;5238737;26;20421;-67
2024/04/10 02:48:26;;;;;;;2.10;0.10;;;;;;;5.57;60.15;101770.91;5220530;26;20398;-67
2024/04/10 02:50:52;;;;;;;6.80;0.50;;;;;;;5.69;60.21;101779.50;5235746;26;20013;-68
2024/04/10 02:53:18;;;;;;;7.10;0.40;;;;;;;5.86;60.18;101782.88;5236073;26;20481;-68
2024/04/10 02:55:45;;;;;;;5.82;0.60;;;;;;;5.22;61.64;101799.56;5232797;26;20546;-67
2024/04/10 02:58:12;;;;;;;4.88;0.20;;;;;;;5.30;60.78;101796.94;5227379;26;20363;-68
2024/04/10 03:00:51;;;;;;;8.65;0.50;;;;;;;5.49;59.41;101803.78;5237377;26;20025;-69
2024/04/10 03:03:18;;;;;;;9.95;0.50;;;;;;;5.13;59.19;101816.00;5241051;26;20085;-67
2024/04/10 03:05:45;;;;;;;3.40;0.40;;;;;;;5.22;58.07;101821.16;5220573;26;20082;-67
2024/04/10 03:08:11;;;;;;;8.90;0.80;;;;;;;5.10;57.61;101838.44;5266057;26;20006;-67
2024/04/10 03:10:38;;;;;;;9.18;0.73;;;;;;;5.30;56.46;101844.47;5221061;26;20020;-68
2024/04/10 03:13:04;;;;;;;9.05;0.90;;;;;;;5.50;55.67;101844.41;5231837;26;20005;-68
2024/04/10 03:15:30;;;;;;;12.20;1.63;;;;;;;5.87;54.63;101849.44;5226835;26;20057;-68
2024/04/10 03:17:56;;;;;;;6.93;0.45;;;;;;;5.56;54.82;101857.34;5233600;26;20005;-72
2024/04/10 03:20:21;;;;;;;6.43;1.05;;;;;;;5.75;54.38;101867.66;5229065;26;20423;-73
2024/04/10 03:22:47;;;;;;;7.10;0.70;;;;;;;5.75;54.19;101867.66;5242460;26;20018;-72
2024/04/10 03:25:13;;;;;;;3.80;0.98;;;;;;;5.42;54.37;101870.34;5236731;26;20010;-73
2024/04/10 03:27:42;;;;;;;16.13;0.85;;;;;;;5.09;54.34;101881.66;5238194;26;23479;-71
2024/04/10 03:30:09;;;;;;;3.85;0.82;;;;;;;5.79;52.92;101874.56;5255989;27;20073;-71
2024/04/10 03:32:37;;;;;;;12.93;0.70;;;;;;;5.76;52.70;101884.97;5264988;26;21235;-71
2024/04/10 03:35:06;;;;;;;5.07;0.38;;;;;;;5.53;52.78;101885.03;5217333;26;20764;-71
2024/04/10 03:37:32;;;;;;;9.95;1.25;;;;;;;5.53;51.88;101892.81;5254272;26;20540;-66
2024/04/10 03:39:57;;;;;;;6.32;0.40;;;;;;;5.73;51.64;101906.59;5244181;26;21176;-67
2024/04/10 03:42:25;;;;;;;6.78;1.05;;;;;;;5.62;51.83;101901.44;5231032;26;20014;-67
2024/04/10 03:44:50;;;;;;;8.88;0.70;;;;;;;5.73;51.35;101905.72;5233673;26;20014;-67
2024/04/10 03:47:16;;;;;;;3.30;0.20;;;;;;;6.02;50.52;101909.06;5232893;26;20013;-67
2024/04/10 03:49:41;;;;;;;10.80;0.50;;;;;;;5.73;50.92;101911.78;5234164;26;20006;-66
2024/04/10 03:52:07;;;;;;;6.63;0.68;;;;;;;6.07;50.75;101912.50;5241540;26;20014;-66
2024/04/10 03:54:33;;;;;;;5.88;1.05;;;;;;;5.75;51.04;101920.41;5233175;26;20072;-67
2024/04/10 03:56:58;;;;;;;6.20;0.93;;;;;;;5.99;50.42;101924.63;5237335;26;20098;-67
2024/04/10 03:59:23;;;;;;;6.85;0.40;;;;;;;6.17;49.50;101921.13;5229640;26;20005;-70
2024/04/10 04:01:50;;;;;;;6.45;0.30;;;;;;;6.42;49.88;101928.81;5236894;26;20083;-69
2024/04/10 04:04:16;;;;;;;11.00;0.73;;;;;;;6.04;50.25;101942.81;5236085;26;20025;-68
2024/04/10 04:06:44;;;;;;;4.78;0.57;;;;;;;5.84;50.52;101951.53;5233992;26;20007;-67
2024/04/10 04:09:10;;;;;;;7.90;0.55;;;;;;;6.02;50.50;101949.75;5244189;26;20049;-67
2024/04/10 04:11:36;;;;;;;7.10;0.47;;;;;;;6.16;49.94;101960.91;5236557;26;20451;-66
2024/04/10 04:14:03;;;;;;;7.88;0.93;;;;;;;6.09;49.91;101967.88;5244367;26;22952;-67
2024/04/10 04:16:29;;;;;;;7.32;1.25;;;;;;;6.16;50.18;101971.31;5231462;26;20018;-68
2024/04/10 04:18:55;;;;;;;11.93;0.68;;;;;;;6.28;50.24;101988.59;5232985;26;20102;-71
2024/04/10 04:21:20;;;;;;;7.88;0.43;;;;;;;6.16;50.57;101980.81;5207736;26;20029;-74
2024/04/10 04:23:46;;;;;;;6.78;0.60;;;;;;;6.21;50.42;101986.84;5247495;26;20045;-70
2024/04/10 04:26:12;;;;;;;5.53;0.30;;;;;;;6.14;50.72;101990.34;5235011;26;20006;-70
2024/04/10 04:28:37;;;;;;;3.72;1.10;;;;;;;6.27;50.13;102005.88;5234073;26;20535;-71
2024/04/10 04:31:03;;;;;;;3.00;0.63;;;;;;;6.50;49.41;102005.78;5260886;26;20404;-71
2024/04/10 04:33:34;;;;;;;10.30;1.00;;;;;;;6.47;49.65;102008.41;5252652;26;20020;-72
2024/04/10 04:35:59;;;;;;;8.90;0.50;;;;;;;6.01;50.28;102016.31;5232764;26;20238;-72
2024/04/10 04:38:26;;;;;;;8.90;0.40;;;;;;;6.30;49.36;102010.22;5231151;26;20005;-72
2024/04/10 04:40:51;;;;;;;5.70;0.40;;;;;;;6.04;49.02;102016.34;5244620;26;20020;-68
2024/04/10 04:43:17;;;;;;;7.30;0.75;;;;;;;6.39;48.39;102022.31;5237888;26;20006;-66
2024/04/10 04:45:42;;;;;;;3.97;1.05;;;;;;;6.37;48.63;102030.09;5226427;26;20481;-67
2024/04/10 04:48:09;;;;;;;4.45;0.10;;;;;;;5.84;48.61;102036.28;5234942;26;20006;-68
2024/04/10 04:50:41;;;;;;;7.85;0.77;;;;;;;6.04;48.29;102054.41;5244387;26;20021;-67
2024/04/10 04:53:08;;;;;;;5.95;0.73;;;;;;;6.31;47.86;102045.72;5242980;26;20418;-67
2024/04/10 04:55:33;;;;;;;6.20;0.75;;;;;;;6.71;46.96;102066.34;5229608;26;20681;-67
2024/04/10 04:57:59;;;;;;;3.35;0.40;;;;;;;6.11;48.17;102069.09;5232877;26;20037;-68
2024/04/10 05:00:25;;;;;;;6.47;0.20;;;;;;;6.28;47.79;102077.75;5215759;26;20018;-67
2024/04/10 05:02:51;;;;;;;2.13;0.20;;;;;;;6.50;48.02;102075.91;5235957;26;20092;-68
2024/04/10 05:05:18;;;;;;;2.92;0.40;;;;;;;6.52;48.32;102091.50;5250776;26;20010;-67
2024/04/10 05:07:45;;;;;;;7.53;0.82;;;;;;;6.59;48.89;102102.75;5228712;26;20028;-68
2024/04/10 05:10:12;;;;;;;6.13;0.40;;;;;;;6.43;50.94;102109.72;5237701;26;20006;-69
2024/04/10 05:12:38;;;;;;;13.00;0.52;;;;;;;6.08;53.71;102108.91;5255717;26;20006;-69
2024/04/10 05:15:06;;;;;;;6.53;0.60;;;;;;;5.95;55.05;102117.56;5238659;26;20006;-68
2024/04/10 05:17:31;;;;;;;11.07;1.20;;;;;;;5.71;56.21;102125.38;5226393;26;20014;-70
2024/04/10 05:19:57;;;;;;;10.20;0.60;;;;;;;6.04;55.72;102130.53;5235766;26;20028;-69
2024/04/10 05:22:22;;;;;;;7.43;1.42;;;;;;;6.08;55.90;102137.47;5230358;26;20021;-69
2024/04/10 05:24:48;;;;;;;8.38;0.65;;;;;;;6.28;55.40;102145.25;5267223;26;20025;-69
2024/04/10 05:27:27;;;;;;;9.73;0.43;;;;;;;5.91;56.07;102164.28;5247644;26;20010;-69
2024/04/10 05:29:56;;;;;;;8.18;1.40;;;;;;;6.22;55.99;102160.81;5249881;26;20017;-72
2024/04/10 05:32:21;;;;;;;10.25;0.73;;;;;;;6.20;55.79;102165.13;5291161;26;20546;-72
2024/04/10 05:34:46;;;;;;;10.45;1.20;;;;;;;6.43;55.38;102180.69;5228896;26;20006;-69
2024/04/10 05:37:12;;;;;;;17.05;1.20;;;;;;;6.40;54.96;102180.72;5234230;26;20084;-69
2024/04/10 05:39:38;;;;;;;8.55;0.60;;;;;;;6.54;54.41;102183.28;5237253;26;20014;-70
2024/04/10 05:42:06;;;;;;;12.07;0.70;;;;;;;6.55;54.42;102190.22;5234512;26;20012;-70
2024/04/10 05:44:33;;;;;;;7.28;0.75;;;;;;;6.78;53.78;102187.56;5226127;26;20006;-69
2024/04/10 05:47:00;;;;;;;10.23;0.63;;;;;;;6.98;53.48;102200.50;5235379;26;20013;-69
2024/04/10 05:49:26;;;;;;;7.50;0.98;;;;;;;6.84;53.10;102202.25;5227262;26;20018;-70
2024/04/10 05:51:51;;;;;;;17.80;0.98;;;;;;;7.02;53.24;102201.31;5249411;26;20072;-71
2024/04/10 05:54:17;;;;;;;6.07;0.70;;;;;;;6.45;53.59;102210.13;5249334;26;20013;-68
2024/04/10 05:56:42;;;;;;;10.00;0.70;;;;;;;6.81;52.58;102217.88;5253157;26;20006;-73
2024/04/10 05:59:11;;;;;;;16.25;0.93;;;;;;;6.84;52.56;102223.94;5258245;26;20011;-73
2024/04/10 06:01:36;;;;;;;9.93;1.25;;;;;;;7.16;52.01;102225.56;5233997;26;20010;-72
2024/04/10 06:04:02;;;;;;;7.35;1.40;;;;;;;7.05;51.90;102237.72;5238610;26;20759;-70
2024/04/10 06:06:27;;;;;;;15.55;2.38;;;;;;;7.18;51.76;102239.41;5233858;26;20006;-69
2024/04/10 06:08:53;;;;;;;12.15;0.77;;;;;;;6.76;51.95;102250.81;5238803;26;20013;-74
2024/04/10 06:11:19;;;;;;;5.60;0.63;;;;;;;6.97;51.64;102252.47;5237260;26;20013;-72
2024/04/10 06:13:47;;;;;;;12.40;0.95;;;;;;;7.17;50.85;102263.66;5249233;26;21949;-74
2024/04/10 06:16:12;;;;;;;8.23;0.95;;;;;;;6.84;51.90;102260.31;5203637;27;20413;-71
2024/04/10 06:18:39;;;;;;;12.32;1.13;;;;;;;7.17;50.82;102274.06;5238518;26;20018;-71
2024/04/10 06:21:05;;;;;;;4.70;0.65;;;;;;;7.17;50.65;102274.06;5232250;26;20084;-72
2024/04/10 06:23:32;;;;;;;11.52;0.70;;;;;;;7.20;49.95;102278.38;5229852;26;20028;-75
2024/04/10 06:25:58;;;;;;;5.80;1.42;;;;;;;6.97;51.24;102273.28;5231941;26;20699;-70
2024/04/10 06:28:25;;;;;;;8.57;0.65;;;;;;;7.50;49.49;102280.03;5242969;26;20011;-71
2024/04/10 06:31:01;;;;;;;2.90;1.23;;;;;;;7.74;49.41;102287.72;5226176;26;20061;-67
2024/04/10 06:33:27;;;;;;;10.55;1.00;;;;;;;8.17;48.00;102291.81;5237479;26;20003;-72
2024/04/10 06:35:54;;;;;;;8.63;1.42;;;;;;;8.13;47.73;102296.16;5229556;26;20065;-68
2024/04/10 06:38:19;;;;;;;9.00;0.80;;;;;;;8.28;47.60;102300.41;5258509;26;21929;-70
2024/04/10 06:40:56;;;;;;;15.75;1.52;;;;;;;8.13;47.73;102303.97;5211499;27;20010;-71
2024/04/10 06:43:22;;;;;;;9.00;0.50;;;;;;;8.64;47.24;102302.72;5234192;26;20013;-70
2024/04/10 06:46:05;;;;;;;9.50;1.42;;;;;;;8.97;45.16;102318.06;5226895;26;21654;-70
2024/04/10 06:48:31;;;;;;;13.82;0.80;;;;;;;8.30;46.56;102321.22;5232721;26;20022;-69
2024/04/10 06:51:05;;;;;;;16.08;1.30;;;;;;;7.77;47.81;102325.88;5236117;26;20759;-69
2024/04/10 06:53:31;;;;;;;12.05;1.27;;;;;;;7.97;47.90;102325.78;5230523;26;20028;-67
2024/04/10 06:55:58;;;;;;;6.28;0.70;;;;;;;8.83;45.54;102329.50;5233177;26;20006;-68
2024/04/10 06:58:25;;;;;;;10.20;0.75;;;;;;;8.75;45.37;102337.41;5233075;26;20240;-68
2024/04/10 07:00:58;;;;;;;11.20;1.00;;;;;;;8.63;45.45;102343.56;5224214;26;20006;-71
2024/04/10 07:03:27;;;;;;;8.75;0.47;;;;;;;9.01;45.13;102347.59;5236518;26;20042;-71
2024/04/10 07:06:09;;;;;;;6.72;0.60;;;;;;;9.04;44.57;102346.69;5224752;26;20010;-71
2024/04/10 07:08:37;;;;;;;7.30;1.98;;;;;;;8.80;44.82;102340.81;5232635;26;20014;-70
2024/04/10 07:11:11;;;;;;;9.48;1.00;;;;;;;8.41;45.63;102352.44;5235516;26;20032;-71
2024/04/10 07:13:47;;;;;;;7.57;1.13;;;;;;;8.11;46.57;102360.44;5252127;26;20029;-71
2024/04/10 07:16:13;;;;;;;13.73;1.30;;;;;;;8.28;46.19;102362.06;5210568;27;20084;-70
2024/04/10 07:18:39;;;;;;;8.35;1.17;;;;;;;10.04;42.68;102362.06;5223922;26;20496;-71
2024/04/10 07:21:08;;;;;;;5.50;0.60;;;;;;;11.40;40.13;102358.06;5228825;26;20018;-73
2024/04/10 07:23:39;;;;;;;6.32;1.20;;;;;;;11.35;38.54;102368.63;5208658;26;20020;-72
2024/04/10 07:26:12;;;;;;;8.63;0.93;;;;;;;12.38;36.63;102370.78;5230418;26;20072;-71
2024/04/10 07:28:50;;;;;;;5.78;0.55;;;;;;;12.45;35.83;102368.00;5260931;26;20488;-71
2024/04/10 07:31:28;;;;;;;9.38;0.82;;;;;;;12.61;36.28;102381.59;5227933;26;20139;-71
2024/04/10 07:33:54;;;;;;;9.52;0.65;;;;;;;11.28;37.28;102385.31;5227577;26;20538;-71
2024/04/10 07:36:21;;;;;;;10.32;1.25;;;;;;;10.05;39.16;102394.25;5218939;26;20021;-71
2024/04/10 07:38:48;;;;;;;6.47;0.43;;;;;;;9.90;39.67;102390.09;5236688;26;20021;-70
2024/04/10 07:41:14;;;;;;;9.43;1.02;;;;;;;10.05;40.43;102392.50;5228941;26;20702;-70
2024/04/10 07:43:41;;;;;;;6.50;1.00;;;;;;;10.38;39.74;102400.75;5217608;26;20095;-70
2024/04/10 07:46:09;;;;;;;3.97;1.02;;;;;;;11.34;37.40;102403.53;5231011;26;20010;-68
2024/04/10 07:48:35;;;;;;;4.43;0.50;;;;;;;13.89;33.27;102407.06;5222871;26;20629;-68
2024/04/10 07:51:02;;;;;;;5.85;0.60;;;;;;;13.51;33.50;102406.38;5234803;26;20010;-71
2024/04/10 07:53:28;;;;;;;7.97;1.33;;;;;;;12.94;35.47;102417.53;5229254;26;20017;-71
2024/04/10 07:55:54;;;;;;;5.97;0.68;;;;;;;11.76;36.98;102415.81;5225816;26;20224;-71
2024/04/10 07:58:20;;;;;;;9.55;1.63;;;;;;;11.21;37.67;102422.97;5227449;26;20010;-71
2024/04/10 08:00:45;;;;;;;7.85;1.13;;;;;;;10.58;39.00;102427.44;5250662;26;20068;-70
2024/04/10 08:03:11;;;;;;;12.60;1.65;;;;;;;10.18;39.91;102438.47;5233696;26;20029;-71
2024/04/10 08:05:37;;;;;;;5.13;1.35;;;;;;;9.79;40.11;102434.59;5216176;26;20031;-70
2024/04/10 08:08:03;;;;;;;7.03;1.08;;;;;;;9.57;41.13;102449.66;5239863;26;19999;-69
2024/04/10 08:10:29;;;;;;;10.98;1.58;;;;;;;10.91;39.25;102454.00;5229930;26;20010;-70
2024/04/10 08:12:54;;;;;;;8.07;1.23;;;;;;;12.07;37.65;102452.75;5233118;26;20832;-69
2024/04/10 08:15:21;;;;;;;4.00;0.65;;;;;;;11.54;37.26;102462.50;5231264;26;20016;-69
2024/04/10 08:17:48;;;;;;;8.93;1.60;;;;;;;11.73;38.87;102463.00;5230067;26;20013;-68
2024/04/10 08:20:14;;;;;;;7.93;1.02;;;;;;;11.07;38.63;102469.44;5228484;26;20830;-69
2024/04/10 08:22:40;;;;;;;7.32;1.50;;;;;;;10.75;38.96;102466.44;5249112;26;20014;-69
2024/04/10 08:25:06;;;;;;;7.18;1.38;;;;;;;10.29;39.97;102487.13;5250229;26;20005;-69
2024/04/10 08:27:32;;;;;;;11.40;1.00;;;;;;;9.57;41.00;102484.44;5226584;26;20234;-69
2024/04/10 08:29:57;;;;;;;9.27;0.95;;;;;;;9.52;41.56;102495.78;5234802;26;20228;-70
2024/04/10 08:32:23;;;;;;;12.60;1.13;;;;;;;11.49;37.93;102495.78;5229323;26;20025;-69
2024/04/10 08:34:48;;;;;;;5.97;1.20;;;;;;;13.69;35.80;102496.97;5229117;26;20318;-69
2024/04/10 08:37:14;;;;;;;9.70;1.25;;;;;;;14.99;32.34;102494.84;5232784;26;19999;-69
2024/04/10 08:39:39;;;;;;;7.68;1.15;;;;;;;13.13;34.06;102499.31;5233093;26;20204;-70
2024/04/10 08:42:06;;;;;;;6.93;1.52;;;;;;;12.33;36.31;102512.47;5239166;26;20033;-69
2024/04/10 08:44:33;;;;;;;12.63;1.58;;;;;;;12.01;36.87;102519.25;5234860;26;20006;-69
2024/04/10 08:47:00;;;;;;;12.98;1.20;;;;;;;10.93;37.55;102519.34;5222830;26;20546;-69
2024/04/10 08:49:27;;;;;;;4.75;0.90;;;;;;;12.38;35.76;102520.22;5240217;26;20009;-70
2024/04/10 08:51:53;;;;;;;9.18;0.88;;;;;;;12.11;35.74;102522.56;5221947;26;20026;-69
2024/04/10 08:54:20;;;;;;;6.88;1.52;;;;;;;13.02;36.19;102518.78;5270851;26;20014;-69
2024/04/10 08:56:46;;;;;;;5.07;0.90;;;;;;;14.09;32.66;102517.75;5220730;26;20014;-71
2024/04/10 08:59:11;;;;;;;5.43;1.05;;;;;;;13.79;33.02;102524.75;5236399;26;20021;-69
2024/04/10 09:01:37;;;;;;;4.18;0.85;;;;;;;13.05;34.22;102531.00;5235742;26;20018;-69
2024/04/10 09:04:08;;;;;;;5.90;1.20;;;;;;;12.87;34.78;102529.66;5203396;27;20095;-71
2024/04/10 09:06:34;;;;;;;3.50;1.20;;;;;;;12.92;33.67;102527.81;5254474;26;20017;-70
2024/04/10 09:09:01;;;;;;;10.05;1.33;;;;;;;11.44;35.29;102533.38;5222144;26;20824;-70
2024/04/10 09:11:27;;;;;;;7.28;0.82;;;;;;;12.19;35.07;102544.22;5229119;26;20259;-70
2024/04/10 09:14:19;;;;;;;4.40;0.55;;;;;;;12.21;35.97;102537.19;5223113;26;20006;-70
2024/04/10 09:16:44;;;;;;;1.45;0.55;;;;;;;11.70;35.89;102542.50;5219299;26;20089;-70
2024/04/10 09:19:11;;;;;;;8.75;1.23;;;;;;;11.59;37.28;102540.06;5236243;26;20185;-71
2024/04/10 09:21:38;;;;;;;6.03;0.60;;;;;;;12.02;35.61;102541.06;5233231;26;20007;-69
2024/04/10 09:24:04;;;;;;;5.50;0.60;;;;;;;12.80;34.84;102535.94;5221925;26;20016;-70
2024/04/10 09:26:30;;;;;;;6.35;1.58;;;;;;;13.26;33.53;102548.00;5225827;26;20007;-70
2024/04/10 09:29:09;;;;;;;4.25;1.13;;;;;;;13.06;33.61;102551.94;5224945;26;20006;-71
2024/04/10 09:31:35;;;;;;;10.85;0.90;;;;;;;12.37;35.32;102560.47;5247356;26;20025;-71
2024/04/10 09:34:02;;;;;;;2.88;0.70;;;;;;;13.28;34.75;102565.44;5227041;26;20010;-70
2024/04/10 09:36:32;;;;;;;9.05;0.90;;;;;;;14.76;31.73;102561.41;5231535;26;20006;-70
2024/04/10 09:39:05;;;;;;;7.95;1.70;;;;;;;13.41;33.43;102565.13;5221961;26;20191;-71
2024/04/10 09:41:36;;;;;;;4.75;1.10;;;;;;;13.03;35.26;102575.66;5229852;26;20021;-71
2024/04/10 09:44:04;;;;;;;6.60;2.60;;;;;;;13.33;33.80;102565.31;5219454;26;20184;-70
2024/04/10 09:46:37;;;;;;;4.35;1.02;;;;;;;11.59;35.05;102570.66;5200482;26;20009;-71
2024/04/10 09:49:12;;;;;;;6.72;1.30;;;;;;;12.25;34.28;102582.56;5218966;26;20002;-72
2024/04/10 09:51:42;;;;;;;5.13;1.08;;;;;;;11.56;36.77;102582.03;5223520;26;20044;-71
2024/04/10 09:54:09;;;;;;;13.18;1.65;;;;;;;13.05;34.77;102575.63;5224798;27;20021;-73
2024/04/10 09:56:36;;;;;;;6.88;1.70;;;;;;;13.17;34.46;102571.84;5199157;26;20752;-70
2024/04/10 09:59:11;;;;;;;3.72;1.00;;;;;;;12.28;35.34;102570.25;5227252;26;20510;-71
2024/04/10 10:01:38;;;;;;;7.30;0.70;;;;;;;11.57;36.59;102585.53;5231418;26;20005;-70
2024/04/10 10:04:03;;;;;;;5.22;0.68;;;;;;;10.67;37.60;102582.50;5224314;26;20121;-69
2024/04/10 10:06:31;;;;;;;3.20;0.82;;;;;;;11.20;36.91;102593.97;5227659;26;20083;-69
2024/04/10 10:08:57;;;;;;;6.10;0.85;;;;;;;11.39;37.62;102587.53;5221431;26;20025;-71
2024/04/10 10:11:23;;;;;;;3.67;0.60;;;;;;;11.00;37.67;102595.13;5236846;26;20010;-71
2024/04/10 10:13:59;;;;;;;4.45;0.73;;;;;;;10.70;38.24;102603.34;5225181;26;20052;-70
2024/04/10 10:16:27;;;;;;;5.80;0.85;;;;;;;11.04;37.73;102601.19;5234023;26;20095;-70
2024/04/10 10:18:59;;;;;;;6.00;0.90;;;;;;;10.67;38.34;102603.41;5194148;26;20463;-71
2024/04/10 10:21:25;;;;;;;5.30;0.70;;;;;;;10.61;39.43;102605.19;5202219;27;20253;-72
2024/04/10 10:24:03;;;;;;;9.55;1.30;;;;;;;10.88;38.23;102608.38;5219935;26;20020;-70
2024/04/10 10:26:28;;;;;;;4.57;1.17;;;;;;;11.56;37.85;102599.53;5237563;26;20010;-70
2024/04/10 10:29:04;;;;;;;4.10;0.93;;;;;;;11.11;37.54;102604.59;5218028;26;20014;-71
2024/04/10 10:31:30;;;;;;;10.60;1.27;;;;;;;10.91;38.46;102610.97;5244193;26;20010;-71
2024/04/10 10:34:00;;;;;;;6.50;0.65;;;;;;;10.69;38.96;102609.50;5207188;26;20204;-70
2024/04/10 10:36:31;;;;;;;7.47;0.73;;;;;;;10.95;38.86;102615.28;5234196;26;20079;-69
2024/04/10 10:39:13;;;;;;;5.50;0.88;;;;;;;10.72;39.34;102618.13;5224671;26;20021;-71
2024/04/10 10:41:39;;;;;;;6.97;1.23;;;;;;;11.88;37.67;102620.78;5236408;26;20062;-71
2024/04/10 10:44:04;;;;;;;4.45;1.40;;;;;;;12.51;36.85;102610.88;5231267;26;21845;-70
2024/04/10 10:46:32;;;;;;;7.85;1.83;;;;;;;13.23;34.92;102611.09;5243004;26;20009;-72
2024/04/10 10:48:58;;;;;;;5.20;0.73;;;;;;;13.25;34.94;102610.16;5245154;26;20012;-71
2024/04/10 10:51:24;;;;;;;11.40;1.40;;;;;;;12.52;36.10;102617.84;5252723;26;20686;-71
2024/04/10 10:53:50;;;;;;;4.45;0.90;;;;;;;13.13;37.21;102613.03;5229548;26;21334;-71
2024/04/10 10:58:06;;;;;;;5.22;0.68;;;;;;;12.54;36.03;102610.81;5435783;25;20378;-71
2024/04/10 11:00:34;;;;;;;3.95;1.05;;;;;;;12.86;37.16;102601.41;5396480;26;20104;-71
2024/04/10 11:03:07;;;;;;;1.42;0.55;;;;;;;13.79;34.58;102610.63;5399934;25;20086;-69
2024/04/10 11:05:33;;;;;;;3.55;0.70;;;;;;;14.48;33.89;102606.13;5404897;26;20004;-70
2024/04/10 11:07:58;;;;;;;4.93;1.42;;;;;;;14.42;33.19;102588.72;5396062;26;20101;-70
2024/04/10 11:10:25;;;;;;;6.32;1.50;;;;;;;13.77;34.54;102602.75;5433352;26;20010;-69
2024/04/10 11:13:17;;;;;;;15.15;1.42;;;;;;;13.22;35.64;102606.72;5425289;26;19994;-69
2024/04/10 11:15:49;;;;;;;8.52;0.93;;;;;;;12.07;37.62;102607.38;5405856;25;20005;-69
2024/04/10 11:18:16;;;;;;;7.50;0.65;;;;;;;12.17;39.50;102611.53;5441063;25;20022;-69
2024/04/10 11:20:42;;;;;;;8.88;1.25;;;;;;;12.96;37.16;102602.94;5427970;26;20010;-70
2024/04/10 11:23:07;;;;;;;9.10;1.42;;;;;;;14.20;35.61;102606.00;5437332;25;20011;-69
2024/04/10 11:25:33;;;;;;;2.13;0.75;;;;;;;14.17;33.82;102595.56;5437386;25;20191;-70
2024/04/10 11:27:59;;;;;;;4.40;0.75;;;;;;;14.36;33.43;102599.38;5425832;26;20025;-69
2024/04/10 11:30:25;;;;;;;6.55;1.30;;;;;;;13.22;34.73;102599.69;5423363;26;20569;-70
2024/04/10 11:32:54;;;;;;;11.70;1.00;;;;;;;12.91;36.28;102596.91;5403569;26;20023;-70